createdAt,value
2023-02-23T00:01:56.386Z,56.95
2023-02-23T00:04:26.581Z,55.63
2023-02-23T00:06:55.035Z,55.35
2023-02-23T00:09:35.382Z,56.13
2023-02-23T00:12:08.147Z,61.35
2023-02-23T00:14:39.030Z,58.47
2023-02-23T00:17:14.496Z,55.72
2023-02-23T00:19:44.683Z,54.45
2023-02-23T00:22:13.037Z,52.00
2023-02-23T00:24:43.590Z,54.97
2023-02-23T00:27:17.829Z,51.97
2023-02-23T00:29:49.720Z,58.13
2023-02-23T00:32:21.791Z,54.28
2023-02-23T00:34:50.917Z,57.35
2023-02-23T00:37:22.140Z,55.58
2023-02-23T00:39:53.186Z,49.05
2023-02-23T00:42:21.668Z,55.08
2023-02-23T00:44:53.398Z,51.40
2023-02-23T00:47:21.859Z,55.78
2023-02-23T00:49:52.558Z,58.38
2023-02-23T00:52:23.462Z,54.90
2023-02-23T00:55:03.423Z,61.45
2023-02-23T00:57:34.490Z,54.58
2023-02-23T01:00:10.692Z,51.05
2023-02-23T01:02:43.086Z,58.05
2023-02-23T01:05:14.067Z,52.60
2023-02-23T01:07:42.379Z,48.00
2023-02-23T01:10:20.137Z,57.10
2023-02-23T01:12:50.717Z,58.80
2023-02-23T01:15:21.060Z,53.25
2023-02-23T01:17:49.663Z,55.30
2023-02-23T01:20:19.722Z,53.58
2023-02-23T01:22:52.576Z,51.80
2023-02-23T01:25:38.658Z,56.42
2023-02-23T01:28:06.946Z,56.58
2023-02-23T01:30:35.337Z,54.17
2023-02-23T01:33:03.826Z,49.78
2023-02-23T01:35:33.309Z,53.17
2023-02-23T01:38:02.281Z,49.65
2023-02-23T01:40:36.854Z,52.88
2023-02-23T01:43:17.628Z,53.63
2023-02-23T01:45:47.068Z,58.78
2023-02-23T01:48:19.631Z,57.20
2023-02-23T01:50:53.842Z,53.03
2023-02-23T01:53:22.818Z,47.45
2023-02-23T01:55:55.120Z,54.97
2023-02-23T01:58:26.981Z,55.75
2023-02-23T02:00:58.201Z,48.05
2023-02-23T02:03:29.867Z,50.28
2023-02-23T02:06:01.520Z,49.50
2023-02-23T02:08:33.658Z,50.33
2023-02-23T02:11:09.051Z,51.90
2023-02-23T02:13:43.379Z,54.80
2023-02-23T02:16:35.139Z,49.65
2023-02-23T02:19:31.794Z,52.08
2023-02-23T02:22:41.876Z,51.40
2023-02-23T02:25:35.558Z,50.75
2023-02-23T02:28:43.599Z,49.00
2023-02-23T02:31:49.929Z,59.60
2023-02-23T02:35:04.127Z,57.15
2023-02-23T02:37:44.136Z,49.88
2023-02-23T02:40:22.513Z,48.40
2023-02-23T02:43:00.504Z,50.00
2023-02-23T02:45:35.344Z,51.35
2023-02-23T02:48:15.635Z,46.92
2023-02-23T02:50:50.279Z,48.15
2023-02-23T02:53:32.859Z,51.65
2023-02-23T02:56:07.403Z,53.05
2023-02-23T02:58:40.542Z,50.03
2023-02-23T03:01:36.536Z,55.75
2023-02-23T03:04:39.076Z,47.70
2023-02-23T03:07:34.855Z,55.90
2023-02-23T03:10:32.038Z,49.03
2023-02-23T03:13:26.841Z,53.28
2023-02-23T03:16:36.164Z,47.25
2023-02-23T03:19:38.957Z,49.45
2023-02-23T03:22:32.142Z,47.95
2023-02-23T03:25:26.483Z,50.22
2023-02-23T03:28:23.540Z,52.58
2023-02-23T03:31:18.561Z,51.28
2023-02-23T03:34:12.567Z,47.40
2023-02-23T03:37:06.853Z,52.47
2023-02-23T03:39:58.193Z,48.47
2023-02-23T03:42:48.906Z,52.95
2023-02-23T03:45:40.173Z,49.70
2023-02-23T03:48:31.978Z,49.47
2023-02-23T03:51:22.823Z,46.83
2023-02-23T03:54:15.585Z,50.67
2023-02-23T03:57:07.642Z,49.80
2023-02-23T04:00:00.618Z,55.83
2023-02-23T04:02:50.510Z,46.67
2023-02-23T04:05:38.471Z,53.00
2023-02-23T04:08:28.554Z,56.40
2023-02-23T04:11:22.726Z,55.85
2023-02-23T04:14:00.837Z,46.25
2023-02-23T04:16:32.658Z,47.67
2023-02-23T04:19:14.465Z,46.45
2023-02-23T04:21:43.062Z,52.85
2023-02-23T04:24:15.370Z,45.40
2023-02-23T04:26:46.192Z,51.15
2023-02-23T04:29:14.865Z,58.83
2023-02-23T04:31:44.193Z,52.83
2023-02-23T04:34:17.034Z,56.33
2023-02-23T04:36:45.764Z,58.45
2023-02-23T04:39:14.447Z,51.65
2023-02-23T04:41:45.964Z,44.88
2023-02-23T04:44:14.404Z,47.60
2023-02-23T04:46:43.226Z,46.65
2023-02-23T04:49:18.185Z,52.50
2023-02-23T04:51:50.373Z,45.25
2023-02-23T04:54:18.960Z,50.70
2023-02-23T04:57:14.936Z,45.90
2023-02-23T04:59:52.403Z,50.15
2023-02-23T05:02:20.951Z,42.13
2023-02-23T05:04:51.419Z,48.55
2023-02-23T05:07:22.527Z,52.83
2023-02-23T05:12:52.308Z,49.08
2023-02-23T05:15:21.336Z,45.55
2023-02-23T05:17:52.886Z,60.10
2023-02-23T05:20:30.002Z,50.33
2023-02-23T05:23:01.808Z,55.05
2023-02-23T05:25:46.113Z,48.28
2023-02-23T05:28:16.618Z,49.58
2023-02-23T05:30:48.195Z,45.30
2023-02-23T05:33:20.178Z,51.45
2023-02-23T05:35:54.649Z,56.78
2023-02-23T05:38:23.472Z,60.85
2023-02-23T05:40:54.397Z,48.50
2023-02-23T05:43:23.076Z,52.30
2023-02-23T05:45:52.481Z,51.55
2023-02-23T05:48:24.062Z,58.03
2023-02-23T05:50:53.952Z,56.63
2023-02-23T05:53:22.958Z,60.92
2023-02-23T05:55:52.307Z,62.38
2023-02-23T05:58:20.391Z,57.53
2023-02-23T06:00:48.700Z,58.80
2023-02-23T06:03:17.038Z,50.53
2023-02-23T06:05:53.542Z,53.05
2023-02-23T06:08:23.695Z,49.75
2023-02-23T06:10:52.094Z,47.58
2023-02-23T06:13:23.401Z,51.65
2023-02-23T06:15:52.238Z,49.58
2023-02-23T06:18:28.804Z,47.97
2023-02-23T06:21:03.068Z,62.25
2023-02-23T06:23:35.802Z,52.08
2023-02-23T06:26:10.448Z,54.63
2023-02-23T06:28:38.769Z,54.22
2023-02-23T06:31:08.090Z,55.92
2023-02-23T06:33:39.911Z,55.00
2023-02-23T06:36:08.744Z,57.80
2023-02-23T06:38:38.550Z,58.55
2023-02-23T06:41:13.646Z,55.90
2023-02-23T06:43:42.344Z,54.88
2023-02-23T06:46:11.332Z,53.13
2023-02-23T06:48:51.245Z,55.38
2023-02-23T06:51:25.658Z,54.15
2023-02-23T06:53:58.752Z,52.25
2023-02-23T06:56:34.663Z,47.85
2023-02-23T06:59:05.838Z,54.13
2023-02-23T07:01:38.483Z,53.05
2023-02-23T07:04:11.326Z,50.78
2023-02-23T07:06:42.871Z,49.42
2023-02-23T07:09:12.728Z,62.70
2023-02-23T07:11:42.327Z,66.35
2023-02-23T07:14:21.511Z,56.03
2023-02-23T07:16:59.575Z,58.13
2023-02-23T07:19:28.859Z,61.50
2023-02-23T07:22:06.224Z,58.67
2023-02-23T07:24:42.133Z,61.58
2023-02-23T07:27:10.456Z,63.08
2023-02-23T07:29:41.728Z,54.72
2023-02-23T07:32:13.802Z,63.67
2023-02-23T07:34:42.469Z,63.42
2023-02-23T07:37:21.709Z,58.40
2023-02-23T07:39:53.230Z,60.05
2023-02-23T07:42:22.142Z,56.05
2023-02-23T07:44:51.033Z,61.88
2023-02-23T07:47:20.864Z,65.07
2023-02-23T07:49:50.877Z,58.83
2023-02-23T07:52:19.759Z,63.63
2023-02-23T07:54:50.273Z,53.22
2023-02-23T07:57:22.506Z,60.38
2023-02-23T07:59:52.755Z,60.78
2023-02-23T08:02:21.379Z,60.03
2023-02-23T08:04:50.020Z,49.60
2023-02-23T08:07:29.508Z,64.07
2023-02-23T08:09:57.822Z,60.13
2023-02-23T08:12:32.235Z,56.38
2023-02-23T08:15:00.781Z,48.40
2023-02-23T08:17:32.025Z,50.90
2023-02-23T08:20:01.403Z,52.92
2023-02-23T08:22:37.867Z,46.25
2023-02-23T08:25:12.929Z,45.35
2023-02-23T08:27:45.352Z,47.75
2023-02-23T08:30:15.657Z,46.78
2023-02-23T08:32:44.177Z,42.15
2023-02-23T08:35:13.281Z,43.67
2023-02-23T08:37:42.042Z,44.40
2023-02-23T08:40:15.833Z,41.60
2023-02-23T08:42:46.137Z,40.47
2023-02-23T08:45:14.703Z,39.45
2023-02-23T08:47:49.200Z,42.15
2023-02-23T08:50:17.330Z,38.83
2023-02-23T08:52:45.614Z,37.70
2023-02-23T08:57:57.862Z,35.67
2023-02-23T09:00:29.332Z,35.50
2023-02-23T09:02:57.748Z,32.40
2023-02-23T09:05:29.919Z,33.60
2023-02-23T09:07:58.341Z,33.63
2023-02-23T09:10:36.522Z,32.38
2023-02-23T09:13:12.736Z,34.05
2023-02-23T09:15:44.951Z,32.58
2023-02-23T09:18:15.788Z,33.17
2023-02-23T09:20:44.577Z,32.53
2023-02-23T09:23:16.046Z,32.38
2023-02-23T09:25:45.255Z,32.92
2023-02-23T09:28:22.387Z,32.05
2023-02-23T09:30:53.306Z,33.03
2023-02-23T09:33:21.579Z,33.25
2023-02-23T09:35:49.935Z,32.13
2023-02-23T09:38:18.351Z,34.08
2023-02-23T09:40:49.963Z,32.80
2023-02-23T09:43:28.139Z,33.35
2023-02-23T09:46:05.740Z,33.00
2023-02-23T09:48:36.185Z,34.33
2023-02-23T09:51:09.001Z,34.85
2023-02-23T09:53:42.990Z,34.25
2023-02-23T09:56:15.799Z,34.03
2023-02-23T09:58:45.700Z,34.65
2023-02-23T10:01:48.948Z,35.30
2023-02-23T10:04:22.096Z,35.35
2023-02-23T10:06:56.604Z,34.58
2023-02-23T10:09:43.948Z,35.58
2023-02-23T10:12:19.170Z,35.58
2023-02-23T10:15:06.807Z,35.75
2023-02-23T10:17:45.848Z,35.03
2023-02-23T10:20:24.801Z,35.55
2023-02-23T10:22:57.085Z,35.78
2023-02-23T10:25:29.201Z,34.75
2023-02-23T10:28:06.261Z,34.65
2023-02-23T10:30:38.910Z,34.95
2023-02-23T10:33:19.222Z,34.47
2023-02-23T10:35:58.013Z,34.53
2023-02-23T10:38:39.431Z,34.58
2023-02-23T10:41:09.755Z,34.75
2023-02-23T10:43:40.742Z,34.30
2023-02-23T10:46:21.301Z,33.78
2023-02-23T10:48:52.303Z,35.05
2023-02-23T10:51:28.506Z,34.70
2023-02-23T10:53:57.301Z,36.45
2023-02-23T10:56:32.839Z,35.63
2023-02-23T10:59:01.212Z,35.63
2023-02-23T11:02:02.965Z,34.00
2023-02-23T11:04:36.402Z,35.58
2023-02-23T11:07:10.949Z,35.38
2023-02-23T11:09:47.113Z,35.28
2023-02-23T11:12:23.056Z,35.15
2023-02-23T11:14:52.013Z,35.20
2023-02-23T11:17:29.609Z,34.70
2023-02-23T11:20:06.740Z,35.17
2023-02-23T11:22:39.006Z,36.40
2023-02-23T11:25:18.823Z,34.45
2023-02-23T11:27:51.605Z,35.38
2023-02-23T11:30:24.507Z,34.65
2023-02-23T11:32:55.747Z,34.90
2023-02-23T11:35:31.615Z,36.00
2023-02-23T11:38:00.264Z,36.88
2023-02-23T11:40:31.816Z,35.45
2023-02-23T11:43:09.996Z,35.83
2023-02-23T11:45:46.292Z,36.75
2023-02-23T11:48:23.425Z,36.30
2023-02-23T11:50:53.016Z,36.40
2023-02-23T11:53:29.647Z,36.15
2023-02-23T11:56:02.819Z,36.22
2023-02-23T11:58:37.038Z,37.20
2023-02-23T12:01:12.493Z,37.03
2023-02-23T12:03:48.002Z,36.28
2023-02-23T12:06:44.497Z,35.22
2023-02-23T12:09:43.354Z,37.08
2023-02-23T12:12:25.978Z,36.42
2023-02-23T12:15:16.627Z,37.78
2023-02-23T12:18:09.410Z,37.78
2023-02-23T12:21:22.140Z,37.58
2023-02-23T12:24:13.352Z,37.47
2023-02-23T12:27:14.807Z,37.95
2023-02-23T12:30:06.241Z,40.17
2023-02-23T12:33:03.265Z,38.92
2023-02-23T12:35:52.437Z,38.25
2023-02-23T12:38:55.223Z,41.38
2023-02-23T12:47:48.280Z,40.30
2023-02-23T12:50:26.926Z,41.20
2023-02-23T12:59:26.478Z,42.50
2023-02-23T13:02:32.994Z,46.65
2023-02-23T13:05:21.096Z,43.13
2023-02-23T13:08:15.684Z,43.78
2023-02-23T13:11:06.852Z,45.50
2023-02-23T13:19:44.345Z,42.83
2023-02-23T13:22:31.567Z,43.28
2023-02-23T13:28:42.215Z,39.10
2023-02-23T13:31:52.443Z,40.20
2023-02-23T13:34:32.714Z,39.83
2023-02-23T13:37:12.042Z,40.97
2023-02-23T13:40:04.834Z,40.13
2023-02-23T13:42:50.712Z,42.08
2023-02-23T13:45:33.793Z,40.40
2023-02-23T13:48:20.344Z,37.80
2023-02-23T13:51:08.911Z,39.90
2023-02-23T13:53:50.131Z,40.33
2023-02-23T13:56:24.658Z,39.95
2023-02-23T13:58:58.576Z,40.95
2023-02-23T14:01:35.892Z,42.17
2023-02-23T14:04:14.684Z,40.80
2023-02-23T14:06:59.023Z,40.97
2023-02-23T14:09:34.209Z,40.15
2023-02-23T14:12:19.370Z,39.20
2023-02-23T14:14:51.816Z,39.88
2023-02-23T14:17:58.688Z,38.20
2023-02-23T14:20:56.058Z,38.17
2023-02-23T14:23:47.897Z,37.83
2023-02-23T14:44:30.205Z,40.05
2023-02-23T14:47:05.511Z,38.30
2023-02-23T14:49:38.041Z,37.35
2023-02-23T14:52:08.753Z,37.60
2023-02-23T14:54:38.503Z,37.58
2023-02-23T14:57:08.569Z,36.58
2023-02-23T14:59:43.101Z,36.38
2023-02-23T15:02:12.875Z,36.33
2023-02-23T15:04:42.225Z,34.55
2023-02-23T15:07:18.729Z,33.58
2023-02-23T15:09:48.518Z,33.80
2023-02-23T15:12:21.053Z,32.95
2023-02-23T15:14:51.558Z,33.13
2023-02-23T15:17:23.413Z,31.65
2023-02-23T15:20:14.307Z,32.63
2023-02-23T15:22:46.820Z,31.92
2023-02-23T15:25:18.430Z,32.08
2023-02-23T15:27:47.691Z,31.38
2023-02-23T15:30:24.423Z,31.65
2023-02-23T15:33:01.932Z,32.28
2023-02-23T15:35:33.123Z,34.25
2023-02-23T15:38:14.275Z,35.17
2023-02-23T15:40:47.212Z,34.17
2023-02-23T15:43:15.420Z,34.42
2023-02-23T15:45:50.641Z,34.10
2023-02-23T15:48:22.823Z,35.35
2023-02-23T15:50:54.975Z,34.15
2023-02-23T15:53:30.403Z,38.75
2023-02-23T15:56:03.700Z,35.88
2023-02-23T15:58:35.095Z,32.95
2023-02-23T16:01:13.176Z,31.83
2023-02-23T16:03:47.142Z,29.75
2023-02-23T16:06:24.998Z,29.20
2023-02-23T16:09:05.906Z,28.63
2023-02-23T16:11:36.555Z,28.05
2023-02-23T16:14:06.957Z,27.87
2023-02-23T16:16:37.680Z,29.95
2023-02-23T16:19:07.910Z,28.23
2023-02-23T16:21:39.895Z,33.67
2023-02-23T16:24:11.468Z,32.97
2023-02-23T16:26:46.834Z,31.80
2023-02-23T16:29:19.093Z,29.30
2023-02-23T16:31:51.099Z,29.50
2023-02-23T16:34:21.888Z,28.38
2023-02-23T16:36:57.740Z,28.73
2023-02-23T16:39:29.287Z,31.98
2023-02-23T16:41:58.622Z,29.05
2023-02-23T16:44:37.827Z,29.70
2023-02-23T16:47:48.292Z,29.10
2023-02-23T16:50:20.482Z,28.58
2023-02-23T16:52:53.571Z,31.27
2023-02-23T16:55:26.004Z,27.93
2023-02-23T16:57:56.897Z,32.00
2023-02-23T17:00:28.747Z,33.37
2023-02-23T17:03:00.915Z,32.23
2023-02-23T17:05:30.493Z,34.17
2023-02-23T17:07:59.188Z,32.63
2023-02-23T17:10:31.457Z,37.40
2023-02-23T17:13:02.626Z,33.67
2023-02-23T17:15:34.156Z,40.40
2023-02-23T17:18:03.819Z,36.95
2023-02-23T17:20:32.784Z,41.40
2023-02-23T17:23:02.274Z,33.67
2023-02-23T17:25:30.939Z,35.30
2023-02-23T17:27:59.933Z,38.67
2023-02-23T17:30:38.048Z,36.73
2023-02-23T17:33:10.452Z,38.37
2023-02-23T17:35:38.873Z,33.33
2023-02-23T17:38:08.157Z,48.90
2023-02-23T17:40:38.088Z,57.53
2023-02-23T17:43:08.652Z,43.80
2023-02-23T17:45:37.286Z,38.37
2023-02-23T17:48:05.675Z,45.77
2023-02-23T17:50:35.294Z,36.73
2023-02-23T17:53:03.521Z,51.87
2023-02-23T17:55:33.720Z,45.23
2023-02-23T17:58:01.830Z,44.40
2023-02-23T18:00:29.946Z,44.53
2023-02-23T18:02:57.939Z,48.85
2023-02-23T18:05:26.130Z,41.83
2023-02-23T18:07:55.805Z,44.43
2023-02-23T18:10:25.609Z,49.17
2023-02-23T18:12:53.913Z,39.30
2023-02-23T18:15:22.434Z,46.77
2023-02-23T18:17:54.724Z,30.17
2023-02-23T18:20:23.071Z,33.97
2023-02-23T18:22:52.830Z,34.40
2023-02-23T18:25:26.812Z,31.40
2023-02-23T18:27:55.572Z,34.57
2023-02-23T18:30:25.102Z,37.70
2023-02-23T18:32:57.849Z,32.40
2023-02-23T18:35:26.057Z,30.23
2023-02-23T18:37:54.342Z,31.73
2023-02-23T18:40:24.951Z,29.57
2023-02-23T18:42:53.195Z,31.30
2023-02-23T18:45:21.601Z,32.90
2023-02-23T18:47:49.604Z,40.73
2023-02-23T18:50:19.290Z,34.03
2023-02-23T18:52:48.187Z,33.27
2023-02-23T18:55:17.017Z,31.10
2023-02-23T18:57:46.901Z,29.77
2023-02-23T19:00:16.711Z,34.03
2023-02-23T19:02:49.347Z,30.43
2023-02-23T19:05:21.006Z,30.63
2023-02-23T19:07:51.535Z,30.03
2023-02-23T19:10:19.956Z,30.70
2023-02-23T19:12:52.374Z,31.00
2023-02-23T19:15:20.667Z,31.00
2023-02-23T19:17:48.765Z,30.67
2023-02-23T19:20:19.621Z,29.20
2023-02-23T19:22:48.057Z,29.80
2023-02-23T19:25:16.748Z,28.67
2023-02-23T19:27:45.094Z,28.43
2023-02-23T19:30:15.339Z,32.57
2023-02-23T19:32:44.344Z,28.73
2023-02-23T19:35:15.909Z,30.77
2023-02-23T19:37:52.153Z,29.67
2023-02-23T19:40:22.698Z,29.40
2023-02-23T19:42:53.321Z,31.20
2023-02-23T19:45:24.926Z,30.40
2023-02-23T19:47:53.460Z,30.53
2023-02-23T19:50:22.573Z,31.77
2023-02-23T19:52:50.760Z,30.20
2023-02-23T19:55:20.543Z,30.63
2023-02-23T19:57:48.643Z,32.30
2023-02-23T20:00:17.446Z,30.93
2023-02-23T20:02:54.843Z,30.80
2023-02-23T20:05:25.611Z,33.07
2023-02-23T20:07:54.849Z,33.63
2023-02-23T20:10:27.019Z,32.90
2023-02-23T20:12:55.476Z,35.10
2023-02-23T20:15:24.044Z,33.93
2023-02-23T20:17:53.960Z,36.07
2023-02-23T20:20:25.529Z,29.70
2023-02-23T20:22:55.518Z,30.90
2023-02-23T20:25:24.407Z,30.33
2023-02-23T20:27:52.484Z,29.27
2023-02-23T20:30:20.969Z,31.17
2023-02-23T20:32:49.762Z,33.73
2023-02-23T20:35:20.556Z,30.33
2023-02-23T20:37:48.783Z,28.63
2023-02-23T20:40:18.638Z,29.90
2023-02-23T20:42:47.874Z,29.73
2023-02-23T20:45:17.815Z,34.70
2023-02-23T20:47:52.052Z,58.97
2023-02-23T20:50:23.035Z,33.07
2023-02-23T20:52:51.737Z,28.13
2023-02-23T20:55:20.180Z,28.67
2023-02-23T20:57:49.940Z,32.70
2023-02-23T21:00:26.681Z,31.00
2023-02-23T21:02:55.747Z,28.70
2023-02-23T21:05:28.553Z,31.13
2023-02-23T21:08:00.108Z,28.13
2023-02-23T21:10:30.975Z,27.83
2023-02-23T21:12:59.067Z,27.50
2023-02-23T21:15:29.290Z,29.27
2023-02-23T21:18:00.676Z,29.80
2023-02-23T21:20:33.856Z,27.03
2023-02-23T21:23:12.876Z,28.03
2023-02-23T21:25:44.481Z,28.60
2023-02-23T21:28:16.230Z,28.17
2023-02-23T21:30:49.838Z,28.73
2023-02-23T21:33:23.126Z,28.43
2023-02-23T21:36:06.129Z,30.27
2023-02-23T21:38:35.186Z,29.20
2023-02-23T21:41:08.438Z,29.53
2023-02-23T21:43:43.499Z,29.50
2023-02-23T21:46:19.624Z,31.93
2023-02-23T21:48:48.203Z,29.77
2023-02-23T21:51:19.133Z,29.83
2023-02-23T21:53:48.333Z,33.80
2023-02-23T21:56:20.362Z,32.17
2023-02-23T21:58:53.657Z,30.13
2023-02-23T22:01:24.770Z,30.97
2023-02-23T22:03:55.211Z,31.47
2023-02-23T22:06:27.174Z,30.77
2023-02-23T22:08:58.842Z,31.27
2023-02-23T22:11:29.366Z,30.60
2023-02-23T22:14:00.431Z,31.27
2023-02-23T22:16:34.276Z,32.10
2023-02-23T22:19:15.211Z,31.97
2023-02-23T22:21:47.838Z,31.10
2023-02-23T22:24:20.114Z,31.77
2023-02-23T22:26:54.285Z,32.47
2023-02-23T22:29:24.547Z,31.67
2023-02-23T22:31:53.439Z,32.23
2023-02-23T22:34:22.518Z,32.40
2023-02-23T22:36:52.565Z,36.77
2023-02-23T22:39:35.191Z,31.03
2023-02-23T22:42:09.449Z,33.53
2023-02-23T22:44:39.976Z,32.57
2023-02-23T22:47:08.659Z,32.67
2023-02-23T22:49:37.295Z,31.17
2023-02-23T22:52:07.797Z,34.07
2023-02-23T22:54:39.905Z,35.13
2023-02-23T22:57:09.168Z,31.00
2023-02-23T22:59:37.769Z,31.07
2023-02-23T23:02:06.063Z,30.27
2023-02-23T23:04:36.854Z,30.00
2023-02-23T23:07:08.155Z,29.67
2023-02-23T23:09:39.546Z,29.70
2023-02-23T23:12:12.115Z,30.60
2023-02-23T23:14:41.423Z,29.03
2023-02-23T23:17:10.004Z,28.27
2023-02-23T23:19:39.402Z,29.43
2023-02-23T23:22:14.820Z,30.23
2023-02-23T23:24:46.395Z,29.60
2023-02-23T23:27:19.911Z,29.53
2023-02-23T23:29:53.246Z,30.00
2023-02-23T23:32:27.911Z,28.00
2023-02-23T23:34:58.751Z,28.70
2023-02-23T23:37:29.310Z,28.50
2023-02-23T23:40:02.072Z,29.93
2023-02-23T23:42:30.731Z,29.13
2023-02-23T23:45:03.707Z,29.20
2023-02-23T23:47:32.316Z,28.33
2023-02-23T23:50:03.024Z,29.67
2023-02-23T23:52:35.672Z,29.87
2023-02-23T23:55:07.509Z,29.03
2023-02-23T23:57:39.322Z,28.70
